Estación Meteorológica Peña el Pijo (Robertgarden) [ 02/03/23 04:32:54 CET ]

Fecha Hora Presion(HPa) Temp (°C) Humedad % Rocio (°C) Viento ( m/s) Direccion Lluvia 1Hora(mm) Lluvia 24H(mm) LLuvia Total(mm)
2012-Apr-21 01:01:16 1006.500 10.1 72 5.3         158.50
2012-Apr-21 02:01:12 1006.600 9.5 74 5.1         158.50
2012-Apr-21 03:03:15 1006.300 9.8 74 5.4         158.50
2012-Apr-21 04:01:13 1006.200 9.9 75 5.7         158.50
2012-Apr-21 05:01:13 1005.900 9.2 76 5.1         158.50
2012-Apr-21 06:01:14 1005.900 7.6 79 4.2         158.50
2012-Apr-21 07:01:16 1005.800 7.0 82 4.1         158.50
2012-Apr-21 08:01:18 1006.100 6.8 84 4.3         158.50
2012-Apr-21 09:01:19 1006.600 11.4 72 6.5         158.50
2012-Apr-21 10:01:13 1006.800 13.6 61 6.2 1.2 ESE     158.50
2012-Apr-21 11:01:12 1007.300 16.1 52 6.2         158.50
2012-Apr-21 12:01:18 1007.600 17.4 47 5.9 3.3 SW     158.50
2012-Apr-21 13:01:16 1007.400 18.6 43 5.7         158.50
2012-Apr-21 14:01:11 1007.000 19.9 38 5.1 1.5 SW     158.50
2012-Apr-21 15:01:12 1007.200 20.4 36 4.7         158.50
2012-Apr-21 16:01:14 1007.200 20.9 35 4.8         158.50
2012-Apr-21 17:01:13 1006.900 20.2 34 3.7 2.3 SW     158.50
2012-Apr-21 18:01:16 1007.100 19.8 35 3.8 3.4 S     158.50
2012-Apr-21 19:01:17 1007.000 18.1 38 3.5         158.50
2012-Apr-21 20:01:14 1007.300 15.4 46 3.8         158.50
2012-Apr-21 21:01:17 1007.600 13.3 52 3.6         158.50
2012-Apr-21 22:01:14 1008.100 11.1 59 3.3         158.50
2012-Apr-21 23:01:16 1008.600 9.6 66 3.5         158.50

Temperatura Máxima:20°    Temperatura Mínima:
Presión Máxima:1008.600 Hpa    Presión Mínima:1005.800 Hpa


Volver